Time;durP1;ratioP1;P1;durP2;ratioP2;P2;SDS_P1;SDS_P2;PMS_P1;PMS_P2;Temp;Humidity;BMP_temperature;BMP_pressure;BME280_temperature;BME280_humidity;BME280_pressure;Samples;Min_cycle;Max_cycle;Signal;HPM_P1;HPM_P2
2024/02/28 00:01:29;;;;;;;26.63;10.98;;;7.20;99.90;;;;;;5012476;28;20030;-69
2024/02/28 00:03:55;;;;;;;27.13;11.40;;;7.10;99.90;;;;;;5013729;28;20026;-69
2024/02/28 00:06:21;;;;;;;22.15;10.10;;;7.20;99.90;;;;;;5014221;28;20481;-70
2024/02/28 00:08:46;;;;;;;31.70;12.43;;;7.20;99.90;;;;;;5014893;28;20517;-70
2024/02/28 00:11:12;;;;;;;24.55;10.68;;;7.20;99.90;;;;;;5019349;28;20053;-69
2024/02/28 00:13:38;;;;;;;28.33;12.70;;;7.20;99.90;;;;;;5012566;28;20052;-69
2024/02/28 00:16:04;;;;;;;25.55;11.52;;;7.20;99.90;;;;;;5016792;28;20033;-69
2024/02/28 00:18:31;;;;;;;29.58;12.02;;;7.10;99.90;;;;;;5022128;28;20021;-70
2024/02/28 00:20:57;;;;;;;24.58;11.70;;;7.20;99.90;;;;;;5019590;28;20036;-70
2024/02/28 00:23:22;;;;;;;23.88;10.60;;;7.20;99.90;;;;;;5012651;28;20141;-69
2024/02/28 00:25:48;;;;;;;23.75;11.77;;;7.20;99.90;;;;;;5017296;28;20572;-69
2024/02/28 00:28:14;;;;;;;22.13;10.50;;;7.20;99.90;;;;;;5009843;28;20040;-69
2024/02/28 00:30:41;;;;;;;23.40;10.30;;;7.10;99.90;;;;;;5016336;28;20040;-69
2024/02/28 00:33:06;;;;;;;21.30;8.57;;;7.20;99.90;;;;;;5015858;28;20521;-69
2024/02/28 00:35:33;;;;;;;24.40;11.35;;;7.20;99.90;;;;;;5008262;28;20025;-69
2024/02/28 00:37:59;;;;;;;24.42;9.95;;;7.20;99.90;;;;;;5014977;28;20038;-69
2024/02/28 00:40:25;;;;;;;21.85;10.35;;;7.20;99.90;;;;;;5015473;28;20061;-69
2024/02/28 00:42:51;;;;;;;26.17;11.38;;;7.10;99.90;;;;;;5007068;28;20136;-69
2024/02/28 00:45:17;;;;;;;21.55;10.13;;;7.10;99.90;;;;;;5010293;28;20036;-69
2024/02/28 00:47:43;;;;;;;24.15;10.15;;;7.10;99.90;;;;;;5013270;28;20036;-69
2024/02/28 00:50:09;;;;;;;20.83;9.20;;;7.10;99.90;;;;;;5011416;28;20586;-69
2024/02/28 00:52:35;;;;;;;23.73;11.45;;;7.10;99.90;;;;;;5010174;28;20065;-69
2024/02/28 00:55:01;;;;;;;27.42;11.15;;;7.10;99.90;;;;;;5018736;28;20061;-69
2024/02/28 00:57:27;;;;;;;25.05;9.05;;;7.10;99.90;;;;;;5011446;28;20041;-69
2024/02/28 00:59:54;;;;;;;21.77;9.75;;;7.10;99.90;;;;;;5015441;28;20033;-69
2024/02/28 01:02:21;;;;;;;21.40;9.98;;;7.10;99.90;;;;;;5013758;28;20057;-69
2024/02/28 01:04:47;;;;;;;22.92;10.30;;;7.10;99.90;;;;;;5013753;28;20037;-69
2024/02/28 01:07:13;;;;;;;23.40;10.43;;;7.10;99.90;;;;;;5012197;28;20189;-69
2024/02/28 01:09:39;;;;;;;24.25;10.55;;;7.10;99.90;;;;;;5012574;28;20726;-69
2024/02/28 01:12:04;;;;;;;25.63;10.00;;;7.10;99.90;;;;;;5007984;28;20389;-69
2024/02/28 01:14:30;;;;;;;24.75;10.65;;;7.10;99.90;;;;;;5013231;28;20416;-69
2024/02/28 01:16:56;;;;;;;19.50;9.65;;;7.10;99.90;;;;;;5015140;28;20036;-69
2024/02/28 01:19:22;;;;;;;23.95;9.95;;;7.10;99.90;;;;;;5013693;28;20451;-69
2024/02/28 01:21:48;;;;;;;20.10;8.95;;;7.10;99.90;;;;;;5014626;28;20112;-69
2024/02/28 01:24:14;;;;;;;22.60;11.18;;;7.10;99.90;;;;;;5014768;28;20026;-69
2024/02/28 01:26:40;;;;;;;21.63;9.85;;;7.10;99.90;;;;;;5009866;28;20025;-69
2024/02/28 01:29:06;;;;;;;23.08;10.02;;;7.00;99.90;;;;;;5014651;28;20046;-69
2024/02/28 01:31:32;;;;;;;20.95;9.73;;;7.10;99.90;;;;;;5018245;28;20030;-69
2024/02/28 01:33:57;;;;;;;18.70;9.85;;;7.10;99.90;;;;;;5013551;28;20083;-69
2024/02/28 01:36:23;;;;;;;18.25;8.80;;;7.10;99.90;;;;;;5011968;28;20115;-69
2024/02/28 01:38:49;;;;;;;20.77;10.77;;;7.00;99.90;;;;;;5014123;28;20542;-69
2024/02/28 01:41:15;;;;;;;21.95;9.82;;;7.10;99.90;;;;;;5011742;28;20481;-69
2024/02/28 01:43:41;;;;;;;21.02;10.23;;;7.10;99.90;;;;;;5011998;28;20113;-69
2024/02/28 01:46:22;;;;;;;18.83;9.23;;;7.10;99.90;;;;;;5014993;28;20628;-69
2024/02/28 01:48:48;;;;;;;21.70;9.98;;;7.00;99.90;;;;;;5010615;28;20113;-69
2024/02/28 01:51:14;;;;;;;19.23;8.75;;;7.00;99.90;;;;;;5008223;28;20141;-69
2024/02/28 01:53:40;;;;;;;23.33;10.45;;;7.00;99.90;;;;;;5014365;28;20079;-68
2024/02/28 01:56:07;;;;;;;20.45;9.18;;;7.00;99.90;;;;;;5008867;28;20029;-69
2024/02/28 01:58:33;;;;;;;21.17;9.68;;;7.00;99.90;;;;;;5009235;28;20113;-69
2024/02/28 02:01:01;;;;;;;18.83;9.02;;;7.00;99.90;;;;;;5016800;28;20034;-69
2024/02/28 02:03:26;;;;;;;17.73;9.35;;;7.00;99.90;;;;;;5015701;28;20038;-69
2024/02/28 02:05:52;;;;;;;21.52;9.85;;;7.00;99.90;;;;;;5016464;28;20032;-69
2024/02/28 02:08:18;;;;;;;20.55;9.55;;;7.00;99.90;;;;;;5017081;28;20037;-69
2024/02/28 02:10:44;;;;;;;20.40;9.13;;;7.00;99.90;;;;;;5016803;28;20029;-69
2024/02/28 02:13:10;;;;;;;22.30;9.95;;;7.00;99.90;;;;;;5016157;28;20036;-69
2024/02/28 02:15:36;;;;;;;20.42;10.25;;;7.00;99.90;;;;;;5016272;28;20037;-69
2024/02/28 02:18:02;;;;;;;21.92;8.95;;;7.00;99.90;;;;;;5018491;28;20030;-70
2024/02/28 02:20:32;;;;;;;17.60;8.27;;;7.00;99.90;;;;;;5014605;28;20091;-69
2024/02/28 02:22:58;;;;;;;20.35;10.45;;;6.90;99.90;;;;;;5018589;28;20555;-69
2024/02/28 02:25:24;;;;;;;19.38;9.73;;;7.00;99.90;;;;;;5012303;28;20105;-69
2024/02/28 02:27:50;;;;;;;22.63;9.13;;;6.90;99.90;;;;;;5014010;28;20026;-69
2024/02/28 02:30:15;;;;;;;26.65;10.07;;;6.90;99.90;;;;;;5020306;28;20781;-69
2024/02/28 02:32:41;;;;;;;20.85;10.27;;;6.90;99.90;;;;;;5020481;28;20053;-69
2024/02/28 02:35:07;;;;;;;22.50;10.15;;;6.90;99.90;;;;;;5017583;28;20025;-69
2024/02/28 02:37:33;;;;;;;23.42;10.68;;;6.90;99.90;;;;;;5017540;28;20029;-69
2024/02/28 02:39:59;;;;;;;22.30;10.13;;;6.90;99.90;;;;;;5014707;28;20026;-69
2024/02/28 02:42:25;;;;;;;19.35;9.45;;;6.90;99.90;;;;;;5015311;28;20060;-69
2024/02/28 02:44:51;;;;;;;18.58;9.45;;;7.00;99.90;;;;;;5019645;28;20148;-69
2024/02/28 02:47:17;;;;;;;22.25;9.68;;;6.90;99.90;;;;;;5022178;28;20041;-69
2024/02/28 02:49:43;;;;;;;23.50;10.70;;;6.90;99.90;;;;;;5017145;28;20841;-69
2024/02/28 02:52:09;;;;;;;20.45;9.70;;;6.90;99.90;;;;;;5012395;28;20584;-69
2024/02/28 02:54:35;;;;;;;22.77;8.77;;;6.90;99.90;;;;;;5009675;28;20041;-69
2024/02/28 02:57:00;;;;;;;17.90;8.85;;;6.80;99.90;;;;;;5019573;28;20029;-69
2024/02/28 02:59:26;;;;;;;18.95;8.73;;;6.90;99.90;;;;;;5016672;28;20033;-69
2024/02/28 03:01:52;;;;;;;23.00;9.00;;;6.90;99.90;;;;;;5009041;28;20065;-70
2024/02/28 03:04:18;;;;;;;17.20;8.25;;;6.90;99.90;;;;;;5009964;28;20088;-69
2024/02/28 03:06:44;;;;;;;18.30;8.80;;;6.90;99.90;;;;;;5012265;28;20034;-69
2024/02/28 03:09:10;;;;;;;18.20;8.63;;;6.80;99.90;;;;;;5013034;28;20092;-69
2024/02/28 03:11:36;;;;;;;18.92;8.77;;;6.90;99.90;;;;;;5015956;28;20083;-69
2024/02/28 03:14:02;;;;;;;16.45;7.80;;;6.80;99.90;;;;;;5007829;28;20124;-69
2024/02/28 03:16:29;;;;;;;19.38;9.20;;;6.80;99.90;;;;;;5031746;28;20042;-68
2024/02/28 03:18:55;;;;;;;18.80;8.10;;;6.80;99.90;;;;;;5013078;28;20120;-69
2024/02/28 03:21:21;;;;;;;17.40;7.85;;;6.80;99.90;;;;;;5014429;28;20069;-69
2024/02/28 03:23:47;;;;;;;16.25;8.23;;;6.80;99.90;;;;;;5015044;28;20167;-69
2024/02/28 03:26:13;;;;;;;13.75;7.25;;;6.80;99.90;;;;;;5013479;28;20037;-69
2024/02/28 03:28:38;;;;;;;16.27;8.25;;;6.80;99.90;;;;;;5016654;28;20026;-69
2024/02/28 03:31:04;;;;;;;19.95;8.50;;;6.80;99.90;;;;;;5017258;28;20404;-69
2024/02/28 03:33:32;;;;;;;15.00;7.53;;;6.80;99.90;;;;;;5014717;28;20742;-69
2024/02/28 03:35:58;;;;;;;17.20;8.60;;;6.80;99.90;;;;;;5017086;28;20049;-69
2024/02/28 03:38:24;;;;;;;18.80;8.93;;;6.80;99.90;;;;;;5013752;28;20041;-69
2024/02/28 03:40:50;;;;;;;17.30;8.45;;;6.80;99.90;;;;;;5013184;28;20116;-69
2024/02/28 03:43:16;;;;;;;15.52;7.97;;;6.90;99.90;;;;;;5017496;28;20120;-69
2024/02/28 03:45:41;;;;;;;11.50;6.55;;;6.90;99.90;;;;;;5014547;28;20076;-69
2024/02/28 03:48:07;;;;;;;14.30;7.70;;;6.80;99.90;;;;;;5016862;28;20497;-69
2024/02/28 03:50:33;;;;;;;17.02;8.13;;;6.80;99.90;;;;;;5014082;28;20083;-69
2024/02/28 03:52:59;;;;;;;17.30;9.02;;;6.80;99.90;;;;;;5018895;28;20041;-69
2024/02/28 03:55:25;;;;;;;17.38;7.07;;;6.90;99.90;;;;;;5007377;28;20044;-69
2024/02/28 03:57:51;;;;;;;14.98;7.95;;;6.80;99.90;;;;;;5015384;28;20087;-69
2024/02/28 04:00:17;;;;;;;16.50;8.52;;;6.80;99.90;;;;;;5012871;28;20581;-69
2024/02/28 04:02:44;;;;;;;18.25;8.27;;;6.80;99.90;;;;;;5011863;28;20038;-69
2024/02/28 04:05:10;;;;;;;19.33;8.13;;;6.90;99.90;;;;;;5014640;28;20442;-69
2024/02/28 04:07:35;;;;;;;19.30;8.70;;;6.90;99.90;;;;;;5017325;28;20087;-69
2024/02/28 04:10:01;;;;;;;19.55;8.35;;;6.80;99.90;;;;;;5011561;28;20030;-69
2024/02/28 04:12:27;;;;;;;19.60;8.93;;;6.80;99.90;;;;;;5018307;28;20041;-68
2024/02/28 04:14:53;;;;;;;21.13;8.75;;;6.80;99.90;;;;;;5021646;28;20109;-69
2024/02/28 04:17:19;;;;;;;17.63;7.88;;;6.70;99.90;;;;;;5011455;28;20041;-69
2024/02/28 04:19:45;;;;;;;18.88;8.30;;;6.70;99.90;;;;;;5014385;28;20103;-69
2024/02/28 04:22:11;;;;;;;18.52;8.75;;;6.70;99.90;;;;;;5019425;28;20071;-69
2024/02/28 04:24:36;;;;;;;19.55;8.95;;;6.70;99.90;;;;;;5014609;28;20033;-69
2024/02/28 04:27:05;;;;;;;17.25;8.20;;;6.80;99.90;;;;;;5007188;28;20018;-69
2024/02/28 04:29:31;;;;;;;17.42;8.25;;;6.80;99.90;;;;;;5020115;28;20127;-69
2024/02/28 04:31:57;;;;;;;16.13;7.63;;;6.80;99.90;;;;;;5013292;28;20631;-69
2024/02/28 04:34:22;;;;;;;17.90;7.18;;;6.70;99.90;;;;;;5013772;28;20442;-69
2024/02/28 04:36:48;;;;;;;13.80;7.35;;;6.70;99.90;;;;;;5015995;28;20025;-68
2024/02/28 04:39:14;;;;;;;14.40;6.72;;;6.80;99.90;;;;;;5012065;28;20036;-69
2024/02/28 04:41:40;;;;;;;16.83;7.20;;;6.80;99.90;;;;;;5014624;28;20073;-69
2024/02/28 04:44:06;;;;;;;20.20;8.57;;;6.80;99.90;;;;;;5013988;28;20076;-69
2024/02/28 04:46:34;;;;;;;16.33;7.78;;;6.80;99.90;;;;;;5014447;28;20030;-69
2024/02/28 04:48:59;;;;;;;14.70;7.63;;;6.80;99.90;;;;;;5015064;28;20118;-69
2024/02/28 04:51:25;;;;;;;14.52;6.65;;;6.80;99.90;;;;;;5018017;28;20506;-69
2024/02/28 04:53:51;;;;;;;16.70;8.20;;;6.70;99.90;;;;;;5010248;28;20125;-69
2024/02/28 04:56:17;;;;;;;15.68;7.65;;;6.70;99.90;;;;;;5015262;28;20030;-69
2024/02/28 04:58:43;;;;;;;14.00;6.82;;;6.70;99.90;;;;;;5013229;28;20895;-69
2024/02/28 05:01:09;;;;;;;14.75;7.15;;;6.70;99.90;;;;;;5011038;28;20033;-69
2024/02/28 05:03:34;;;;;;;13.15;6.63;;;6.70;99.90;;;;;;5013290;28;20033;-69
2024/02/28 05:06:00;;;;;;;12.88;6.50;;;6.70;99.90;;;;;;5019039;28;20038;-69
2024/02/28 05:08:28;;;;;;;14.65;6.75;;;6.70;99.90;;;;;;5013387;28;20103;-69
2024/02/28 05:10:54;;;;;;;11.73;5.50;;;6.70;99.90;;;;;;5012081;28;20041;-69
2024/02/28 05:13:22;;;;;;;12.50;6.00;;;6.70;99.90;;;;;;5016416;28;20075;-69
2024/02/28 05:15:47;;;;;;;12.07;5.88;;;6.70;99.90;;;;;;5014307;28;20034;-68
2024/02/28 05:18:13;;;;;;;10.00;5.05;;;6.70;99.90;;;;;;5012654;28;20046;-70
2024/02/28 05:20:39;;;;;;;10.75;5.38;;;6.70;99.90;;;;;;5015148;28;20032;-70
2024/02/28 05:23:05;;;;;;;10.85;5.95;;;6.60;99.90;;;;;;5007369;28;20271;-70
2024/02/28 05:25:31;;;;;;;17.77;8.80;;;6.60;99.90;;;;;;5010761;28;20034;-69
2024/02/28 05:27:57;;;;;;;18.55;9.18;;;6.60;99.90;;;;;;5017413;28;20773;-70
2024/02/28 05:30:23;;;;;;;16.67;9.10;;;6.70;99.90;;;;;;5013698;28;20037;-69
2024/02/28 05:32:50;;;;;;;16.10;8.38;;;6.60;99.90;;;;;;5014910;28;20497;-70
2024/02/28 05:35:15;;;;;;;19.38;9.07;;;6.60;99.90;;;;;;5018347;28;20034;-69
2024/02/28 05:37:41;;;;;;;17.33;8.32;;;6.60;99.90;;;;;;5014197;28;20524;-69
2024/02/28 05:40:09;;;;;;;18.70;8.60;;;6.70;99.90;;;;;;5014586;28;20022;-69
2024/02/28 05:42:35;;;;;;;23.20;9.80;;;6.60;99.90;;;;;;5018936;28;20053;-69
2024/02/28 05:45:00;;;;;;;17.92;9.30;;;6.60;99.90;;;;;;5017447;28;20164;-71
2024/02/28 05:47:27;;;;;;;17.25;8.75;;;6.60;99.90;;;;;;5016870;28;20038;-69
2024/02/28 05:49:55;;;;;;;17.13;8.45;;;6.50;99.90;;;;;;5020721;28;20044;-70
2024/02/28 05:52:21;;;;;;;18.50;8.52;;;6.50;99.90;;;;;;5017795;28;20037;-69
2024/02/28 05:54:48;;;;;;;19.83;8.77;;;6.40;99.90;;;;;;5015942;28;20468;-69
2024/02/28 05:57:14;;;;;;;16.45;8.43;;;6.50;99.90;;;;;;5017914;28;20076;-70
2024/02/28 05:59:39;;;;;;;18.98;9.07;;;6.40;99.90;;;;;;5017987;28;21084;-70
2024/02/28 06:02:05;;;;;;;17.80;9.18;;;6.40;99.90;;;;;;5020508;28;20057;-69
2024/02/28 06:04:31;;;;;;;18.50;9.18;;;6.40;99.90;;;;;;5017113;28;20037;-69
2024/02/28 06:06:57;;;;;;;17.45;8.82;;;6.40;99.90;;;;;;5015634;28;20018;-69
2024/02/28 06:09:23;;;;;;;17.92;8.05;;;6.40;99.90;;;;;;5016635;28;20033;-69
2024/02/28 06:11:48;;;;;;;21.85;9.00;;;6.30;99.90;;;;;;5014030;28;20112;-69
2024/02/28 06:14:14;;;;;;;14.43;7.35;;;6.30;99.90;;;;;;5017665;28;20038;-69
2024/02/28 06:16:40;;;;;;;17.88;8.68;;;6.30;99.90;;;;;;5017868;28;20625;-69
2024/02/28 06:19:06;;;;;;;16.90;8.00;;;6.30;99.90;;;;;;5017299;28;20120;-69
2024/02/28 06:21:32;;;;;;;16.67;8.23;;;6.20;99.90;;;;;;5017836;28;20026;-69
2024/02/28 06:23:57;;;;;;;15.43;7.88;;;6.20;99.90;;;;;;5020496;28;20121;-69
2024/02/28 06:26:23;;;;;;;23.88;8.48;;;6.30;99.90;;;;;;5020688;28;20033;-70
2024/02/28 06:28:50;;;;;;;17.88;7.93;;;6.30;99.90;;;;;;5016689;28;20029;-69
2024/02/28 06:31:17;;;;;;;18.70;8.43;;;6.20;99.90;;;;;;5015138;28;20041;-69
2024/02/28 06:33:46;;;;;;;18.52;9.05;;;6.20;99.90;;;;;;5019005;28;20160;-69
2024/02/28 06:36:12;;;;;;;15.57;8.60;;;6.20;99.90;;;;;;5018353;28;20060;-69
2024/02/28 06:38:38;;;;;;;17.30;9.02;;;6.20;99.90;;;;;;5017196;28;20112;-69
2024/02/28 06:41:05;;;;;;;13.70;7.03;;;6.20;99.90;;;;;;5018503;28;20026;-69
2024/02/28 06:43:34;;;;;;;16.63;7.60;;;6.20;99.90;;;;;;5016390;28;20057;-70
2024/02/28 06:46:00;;;;;;;17.13;7.38;;;6.10;99.90;;;;;;5015459;28;20037;-69
2024/02/28 06:48:25;;;;;;;19.73;9.20;;;6.10;99.90;;;;;;5016892;28;20057;-69
2024/02/28 06:50:51;;;;;;;15.40;8.30;;;6.10;99.90;;;;;;5013123;28;20029;-70
2024/02/28 06:53:17;;;;;;;28.40;15.55;;;6.10;99.90;;;;;;5017610;28;20099;-69
2024/02/28 06:55:45;;;;;;;17.52;8.02;;;6.10;99.90;;;;;;5017012;28;20059;-69
2024/02/28 06:58:11;;;;;;;13.30;6.70;;;6.20;99.90;;;;;;5013038;28;20394;-69
2024/02/28 07:00:37;;;;;;;14.77;6.93;;;6.20;99.90;;;;;;5014869;28;20079;-69
2024/02/28 07:03:04;;;;;;;16.25;7.30;;;6.20;99.90;;;;;;5019036;28;20489;-69
2024/02/28 07:05:30;;;;;;;17.55;7.72;;;6.10;99.90;;;;;;5014987;28;20077;-69
2024/02/28 07:07:55;;;;;;;20.05;10.10;;;6.10;99.90;;;;;;5015744;28;20433;-70
2024/02/28 07:10:22;;;;;;;20.85;9.95;;;6.10;99.90;;;;;;5014188;28;20069;-69
2024/02/28 07:12:48;;;;;;;18.25;9.82;;;6.00;99.90;;;;;;5018942;28;20086;-70
2024/02/28 07:15:13;;;;;;;19.08;8.88;;;6.10;99.90;;;;;;5016396;28;20571;-69
2024/02/28 07:17:39;;;;;;;19.73;8.50;;;6.10;99.90;;;;;;5018302;28;20044;-69
2024/02/28 07:20:06;;;;;;;17.08;7.95;;;6.10;99.90;;;;;;5016541;28;20270;-69
2024/02/28 07:22:32;;;;;;;18.23;8.32;;;6.20;99.90;;;;;;5010487;28;20029;-69
2024/02/28 07:24:58;;;;;;;18.70;9.55;;;6.20;99.90;;;;;;5015147;28;20126;-69
2024/02/28 07:27:24;;;;;;;32.28;12.38;;;6.20;99.90;;;;;;5010958;28;20565;-70
2024/02/28 07:29:50;;;;;;;19.50;9.45;;;6.30;99.90;;;;;;5010098;28;20040;-69
2024/02/28 07:32:16;;;;;;;16.38;7.70;;;6.20;99.90;;;;;;5014765;28;20037;-69
2024/02/28 07:34:42;;;;;;;17.23;8.57;;;6.20;99.90;;;;;;5016000;28;20797;-69
2024/02/28 07:37:08;;;;;;;18.92;8.98;;;6.30;99.90;;;;;;5011988;28;20148;-69
2024/02/28 07:39:33;;;;;;;20.75;8.30;;;6.30;99.90;;;;;;5014103;28;20501;-69
2024/02/28 07:41:59;;;;;;;19.42;8.55;;;6.30;99.90;;;;;;5016174;28;20057;-69
2024/02/28 07:44:26;;;;;;;16.80;8.02;;;6.30;99.90;;;;;;5012411;28;20034;-69
2024/02/28 07:46:51;;;;;;;19.50;8.60;;;6.40;99.90;;;;;;5016952;28;20013;-68
2024/02/28 07:49:17;;;;;;;20.65;8.63;;;6.40;99.90;;;;;;5015202;28;20583;-68
2024/02/28 07:51:43;;;;;;;27.23;10.23;;;6.40;99.90;;;;;;5011384;28;20119;-70
2024/02/28 07:54:09;;;;;;;14.68;7.47;;;6.50;99.90;;;;;;5003765;28;20038;-69
2024/02/28 07:56:35;;;;;;;23.58;10.43;;;6.50;99.90;;;;;;5006440;28;20034;-68
2024/02/28 07:59:01;;;;;;;22.13;10.77;;;6.50;99.90;;;;;;5005925;28;20072;-69
2024/02/28 08:01:26;;;;;;;20.25;8.90;;;6.50;99.90;;;;;;5015552;28;20022;-68
2024/02/28 08:03:54;;;;;;;20.13;9.30;;;6.50;99.90;;;;;;5017890;28;20614;-68
2024/02/28 08:06:21;;;;;;;21.00;9.50;;;6.50;99.90;;;;;;5009988;28;20040;-68
2024/02/28 08:08:47;;;;;;;18.23;8.85;;;6.60;99.90;;;;;;5012928;28;20034;-71
2024/02/28 08:11:13;;;;;;;21.25;9.30;;;6.60;99.90;;;;;;5012476;28;20041;-72
2024/02/28 08:13:39;;;;;;;20.63;9.02;;;6.60;99.90;;;;;;5011699;28;20037;-72
2024/02/28 08:16:08;;;;;;;23.58;10.85;;;6.60;99.90;;;;;;5016771;28;20044;-71
2024/02/28 08:18:35;;;;;;;22.48;9.65;;;6.60;99.90;;;;;;5018534;28;20052;-71
2024/02/28 08:21:02;;;;;;;20.80;10.32;;;6.60;99.90;;;;;;5013738;28;20037;-71
2024/02/28 08:23:31;;;;;;;27.20;12.95;;;6.70;99.90;;;;;;5012412;28;20038;-71
2024/02/28 08:25:57;;;;;;;25.02;11.48;;;6.70;99.90;;;;;;5013903;28;20036;-71
2024/02/28 08:28:22;;;;;;;22.30;10.30;;;6.70;99.90;;;;;;5015395;28;20409;-71
2024/02/28 08:30:49;;;;;;;22.58;10.05;;;6.80;99.90;;;;;;5014074;28;20175;-71
2024/02/28 08:33:15;;;;;;;21.05;9.25;;;6.80;99.90;;;;;;5014544;28;20033;-71
2024/02/28 08:35:42;;;;;;;20.38;9.07;;;6.80;99.90;;;;;;5010910;28;20079;-71
2024/02/28 08:38:08;;;;;;;22.20;9.52;;;6.80;99.90;;;;;;5013635;28;20393;-72
2024/02/28 08:40:34;;;;;;;22.60;10.48;;;6.90;99.90;;;;;;5007137;28;20029;-71
2024/02/28 08:43:00;;;;;;;20.45;10.20;;;6.90;99.90;;;;;;5011189;28;20037;-71
2024/02/28 08:45:26;;;;;;;20.05;10.10;;;7.00;99.90;;;;;;5017238;28;20046;-71
2024/02/28 08:47:53;;;;;;;20.58;10.90;;;7.00;99.90;;;;;;5011511;28;20044;-71
2024/02/28 08:50:19;;;;;;;25.15;10.50;;;7.00;99.90;;;;;;5010235;28;20562;-71
2024/02/28 08:52:45;;;;;;;24.00;9.95;;;7.00;99.90;;;;;;5016117;28;20100;-73
2024/02/28 08:55:10;;;;;;;19.95;9.95;;;6.90;99.90;;;;;;5014760;28;20485;-72
2024/02/28 08:57:36;;;;;;;23.98;10.27;;;6.80;99.90;;;;;;5011753;28;20120;-72
2024/02/28 09:00:03;;;;;;;26.25;13.35;;;6.80;99.90;;;;;;5012456;28;20118;-71
2024/02/28 09:02:29;;;;;;;21.30;9.52;;;6.90;99.90;;;;;;5014688;28;20637;-71
2024/02/28 09:04:56;;;;;;;20.05;9.60;;;6.90;99.90;;;;;;5007826;28;20033;-72
2024/02/28 09:07:22;;;;;;;18.52;9.52;;;6.70;99.90;;;;;;5014837;28;20146;-72
2024/02/28 09:09:49;;;;;;;20.70;10.07;;;6.70;99.90;;;;;;5011291;28;20032;-71
2024/02/28 09:12:15;;;;;;;17.77;9.07;;;6.70;99.90;;;;;;5012425;28;20108;-71
2024/02/28 09:14:41;;;;;;;17.70;8.25;;;6.80;99.90;;;;;;5014138;28;20117;-71
2024/02/28 09:17:07;;;;;;;18.55;9.40;;;6.90;99.90;;;;;;5014322;28;20025;-72
2024/02/28 09:19:32;;;;;;;18.77;9.38;;;7.00;99.90;;;;;;5013050;28;20386;-71
2024/02/28 09:21:58;;;;;;;18.10;8.82;;;7.00;99.90;;;;;;5010608;28;20040;-71
2024/02/28 09:24:24;;;;;;;16.30;7.80;;;7.00;99.90;;;;;;5014742;28;20033;-71
2024/02/28 09:26:50;;;;;;;16.73;8.05;;;7.00;99.90;;;;;;5014067;28;20071;-71
2024/02/28 09:29:16;;;;;;;15.48;8.15;;;7.00;99.90;;;;;;5012793;28;20041;-71
2024/02/28 09:31:42;;;;;;;15.18;8.00;;;7.10;99.90;;;;;;5013678;28;20673;-71
2024/02/28 09:34:09;;;;;;;18.63;8.52;;;7.10;99.90;;;;;;5027765;28;20040;-71
2024/02/28 09:36:42;;;;;;;16.08;8.70;;;7.10;99.90;;;;;;5010416;28;20025;-72
2024/02/28 09:39:08;;;;;;;23.17;10.43;;;7.20;99.90;;;;;;5015360;28;20044;-72
2024/02/28 09:41:34;;;;;;;21.23;9.95;;;7.30;99.90;;;;;;5010712;28;20500;-71
2024/02/28 09:44:02;;;;;;;22.73;10.23;;;7.20;99.90;;;;;;5012198;28;20042;-72
2024/02/28 09:46:29;;;;;;;19.65;8.48;;;7.20;99.90;;;;;;5010191;28;20061;-71
2024/02/28 09:48:56;;;;;;;24.35;11.35;;;7.30;99.90;;;;;;5009945;28;20029;-71
2024/02/28 09:51:24;;;;;;;25.38;11.95;;;7.30;99.90;;;;;;5009961;28;20041;-71
2024/02/28 09:53:50;;;;;;;20.23;9.90;;;7.40;99.90;;;;;;5016196;28;20034;-71
2024/02/28 09:56:16;;;;;;;19.23;9.15;;;7.30;99.90;;;;;;5007825;28;20497;-71
2024/02/28 09:58:43;;;;;;;18.00;8.52;;;7.30;99.90;;;;;;5015126;28;20080;-72
2024/02/28 10:01:11;;;;;;;20.13;9.38;;;7.30;99.90;;;;;;5013044;28;20488;-71
2024/02/28 10:03:39;;;;;;;17.75;8.25;;;7.30;99.90;;;;;;5010570;28;20679;-71
2024/02/28 10:06:05;;;;;;;13.70;8.07;;;7.30;99.90;;;;;;5010911;28;20064;-71
2024/02/28 10:08:31;;;;;;;17.73;7.50;;;7.30;99.90;;;;;;5014485;28;20029;-71
2024/02/28 10:10:58;;;;;;;13.73;7.82;;;7.20;99.90;;;;;;5012065;28;20030;-72
2024/02/28 10:13:24;;;;;;;15.80;7.70;;;7.20;99.90;;;;;;5017383;28;20029;-72
2024/02/28 10:15:50;;;;;;;15.80;8.35;;;7.20;99.90;;;;;;5012552;28;20040;-71
2024/02/28 10:18:16;;;;;;;18.48;9.13;;;7.20;99.90;;;;;;5007388;28;20034;-71
2024/02/28 10:20:42;;;;;;;20.90;10.02;;;7.20;99.90;;;;;;5010055;28;20128;-71
2024/02/28 10:23:11;;;;;;;20.55;9.07;;;7.20;99.90;;;;;;5013909;28;20101;-71
2024/02/28 10:25:45;;;;;;;14.90;7.32;;;7.30;99.90;;;;;;5009724;28;20029;-71
2024/02/28 10:28:14;;;;;;;16.70;8.57;;;7.30;99.90;;;;;;5011750;28;20025;-72
2024/02/28 10:30:41;;;;;;;17.17;8.23;;;7.30;99.90;;;;;;5014048;28;20084;-72
2024/02/28 10:33:14;;;;;;;14.55;7.25;;;7.40;99.90;;;;;;5010313;28;20029;-71
2024/02/28 10:35:44;;;;;;;15.02;7.82;;;7.50;99.90;;;;;;5010444;28;20038;-71
2024/02/28 10:38:13;;;;;;;13.85;6.60;;;7.40;99.90;;;;;;5011003;28;20034;-71
2024/02/28 10:40:40;;;;;;;15.55;8.13;;;7.40;99.90;;;;;;5006265;28;20029;-72
2024/02/28 10:43:09;;;;;;;14.95;6.95;;;7.50;99.90;;;;;;5011255;28;20567;-72
2024/02/28 10:45:38;;;;;;;18.20;8.95;;;7.60;99.90;;;;;;5010912;28;20045;-71
2024/02/28 10:48:05;;;;;;;18.77;8.00;;;7.60;99.90;;;;;;5007491;28;20549;-71
2024/02/28 10:50:31;;;;;;;15.57;8.35;;;7.50;99.90;;;;;;5011953;28;20034;-70
2024/02/28 10:53:05;;;;;;;15.60;7.60;;;7.50;99.90;;;;;;5010063;28;20033;-71
2024/02/28 10:55:35;;;;;;;18.00;8.35;;;7.50;99.90;;;;;;5011723;28;20416;-71
2024/02/28 10:58:07;;;;;;;16.33;8.20;;;7.60;99.90;;;;;;5014621;28;20045;-70
2024/02/28 11:00:35;;;;;;;17.70;8.63;;;7.60;99.90;;;;;;5009552;28;20034;-70
2024/02/28 11:03:05;;;;;;;31.15;13.60;;;7.60;99.90;;;;;;5007330;28;20081;-71
2024/02/28 11:05:41;;;;;;;55.35;24.02;;;7.60;99.90;;;;;;5013417;28;20041;-72
2024/02/28 11:08:11;;;;;;;22.65;10.48;;;7.60;99.90;;;;;;5007743;28;20553;-71
2024/02/28 11:10:43;;;;;;;22.55;10.20;;;7.60;99.90;;;;;;5013416;28;20117;-71
2024/02/28 11:13:20;;;;;;;31.05;14.45;;;7.50;99.90;;;;;;5013939;28;20029;-72
2024/02/28 11:15:46;;;;;;;18.15;8.80;;;7.60;99.90;;;;;;5013639;28;20962;-72
2024/02/28 11:18:12;;;;;;;35.83;14.88;;;7.60;99.90;;;;;;5010247;28;20113;-72
2024/02/28 11:20:38;;;;;;;17.95;9.75;;;7.50;99.90;;;;;;5013558;28;20034;-71
2024/02/28 11:23:07;;;;;;;20.85;9.98;;;7.40;99.90;;;;;;5008723;28;20068;-70
2024/02/28 11:25:32;;;;;;;24.73;12.50;;;7.50;99.90;;;;;;5011163;28;20037;-71
2024/02/28 11:27:58;;;;;;;15.55;7.15;;;7.60;99.90;;;;;;5014357;28;20038;-72
2024/02/28 11:30:25;;;;;;;12.98;6.65;;;7.70;99.90;;;;;;5011962;28;20038;-72
2024/02/28 11:32:54;;;;;;;12.93;6.75;;;7.70;99.90;;;;;;5010618;28;20605;-72
2024/02/28 11:35:21;;;;;;;11.65;6.82;;;7.80;99.90;;;;;;5012252;28;20069;-71
2024/02/28 11:37:51;;;;;;;17.58;7.68;;;7.90;99.90;;;;;;5011499;28;20037;-71
2024/02/28 11:40:16;;;;;;;18.50;7.63;;;7.90;99.90;;;;;;5010864;28;20409;-71
2024/02/28 11:42:42;;;;;;;14.35;7.93;;;7.90;99.90;;;;;;5012923;28;20025;-71
2024/02/28 11:45:11;;;;;;;15.38;8.07;;;7.80;99.90;;;;;;5011748;28;20038;-71
2024/02/28 11:47:37;;;;;;;19.83;9.38;;;7.90;99.90;;;;;;5007375;28;20041;-72
2024/02/28 11:50:03;;;;;;;18.02;8.82;;;7.90;99.90;;;;;;5009183;28;20849;-71
2024/02/28 11:52:31;;;;;;;12.90;6.50;;;7.90;99.90;;;;;;5009853;28;20369;-71
2024/02/28 11:54:57;;;;;;;14.80;8.20;;;7.90;99.90;;;;;;5008912;28;20107;-71
2024/02/28 11:57:23;;;;;;;13.63;6.90;;;7.80;99.90;;;;;;5011086;28;20038;-72
2024/02/28 11:59:49;;;;;;;17.17;7.28;;;7.90;99.90;;;;;;5011807;28;20029;-71
2024/02/28 12:02:15;;;;;;;15.82;7.15;;;7.70;99.90;;;;;;5010774;28;20029;-71
2024/02/28 12:04:45;;;;;;;13.82;7.75;;;7.80;99.90;;;;;;5012775;28;20634;-71
2024/02/28 12:07:11;;;;;;;13.52;7.75;;;7.80;99.90;;;;;;5011493;28;20168;-71
2024/02/28 12:09:38;;;;;;;14.50;7.22;;;7.90;99.90;;;;;;5008099;28;20413;-72
2024/02/28 12:12:06;;;;;;;14.20;6.90;;;8.00;99.90;;;;;;5010201;28;20033;-71
2024/02/28 12:14:35;;;;;;;12.65;5.95;;;8.00;99.90;;;;;;5012801;28;20275;-72
2024/02/28 12:17:02;;;;;;;15.25;6.60;;;8.00;99.90;;;;;;5008195;28;20092;-71
2024/02/28 12:19:28;;;;;;;14.95;7.00;;;7.90;99.90;;;;;;5009694;28;20033;-71
2024/02/28 12:21:54;;;;;;;28.17;19.02;;;7.90;99.90;;;;;;5009735;28;20037;-71
2024/02/28 12:24:21;;;;;;;16.17;10.07;;;7.90;99.90;;;;;;5008194;28;20026;-71
2024/02/28 12:26:47;;;;;;;12.07;6.28;;;7.90;99.90;;;;;;5012508;28;20032;-71
2024/02/28 12:29:12;;;;;;;11.63;5.97;;;7.90;99.90;;;;;;5011899;28;20107;-71
2024/02/28 12:31:39;;;;;;;12.10;6.05;;;7.90;99.90;;;;;;4990852;28;20572;-71
2024/02/28 12:34:05;;;;;;;12.77;6.35;;;8.00;99.90;;;;;;5010175;28;20055;-71
2024/02/28 12:36:32;;;;;;;12.68;5.97;;;7.70;99.90;;;;;;5009793;28;20533;-69
2024/02/28 12:38:59;;;;;;;9.38;5.28;;;7.90;99.90;;;;;;5009424;28;20140;-69
2024/02/28 12:41:28;;;;;;;8.57;4.93;;;8.10;99.90;;;;;;5011564;28;20045;-74